Vaaraa aiheuttavia sääilmiöitä ei ole odotettavissa.    Ei varoituksia

Webkamera Lisätietoa Webcam


Yksityisiä sääasemia lähellä:

Sääasema Juupajoki

Sääasema Orivesi

Sääasema Muurame

Sääasema Jyväskylä

Sääasema Vihtavuori


Löydät sääaseman tiedot myös:

Finland Weather Exchange

European Weather Network

Weather Underground

AWEKAS

Windy.com



Säätiedot lähimmiltä METAR asemilta

   
EFHA - Halli (Fin-Afb), Finland
Etäisyys asemalta: Kaakko 25 km
Päivitetty: 21.09.2020 15:50
Selkeää  
Selkeää  
   Tuuli: Etelälounas 5.7 m/s
Tuuli: Etelälounas 5.7 m/s
Lämpötila: 13°C
Kastepiste: 4°C
Kosteus: 55%
Ilmanpaine: 1004 hPa
Näkyvyys: Enemmän kuin 10 km
Pilvitiedot: Selkeää
EFHA 211250Z AUTO 20011KT 170V230 CAVOK 13/04 Q1004
EFJY - Jyvaskyla (Mil/Civ), Finland
Etäisyys asemalta: Koillinen 75 km
Päivitetty: 21.09.2020 15:50
Selkeää  
Selkeää  
   Tuuli: Etelälounas 4.6 m/s
Tuuli: Etelälounas 4.6 m/s
Lämpötila: 12°C
Kastepiste: 5°C
Kosteus: 63%
Ilmanpaine: 1003 hPa
Näkyvyys: Enemmän kuin 10 km
Pilvitiedot: Selkeää
EFJY 211250Z AUTO 20009KT 160V240 CAVOK 12/05 Q1003
EFTP - Tampere/Pirkkala, Finland
Etäisyys asemalta: Lounas 81 km
Päivitetty: 21.09.2020 15:50
Selkeää  
Selkeää  
   Tuuli: Etelälounas 6.2 m/s
Tuuli: Etelälounas 6.2 m/s
Lämpötila: 14°C
Kastepiste: 9°C
Kosteus: 72%
Ilmanpaine: 1005 hPa
Näkyvyys: Enemmän kuin 10 km
Pilvitiedot: Selkeää
EFTP 211250Z AUTO 21012KT CAVOK 14/09 Q1005
EFSI - Seinajoki-Ilmajoki, Finland
Etäisyys asemalta: Luode 114 km
Päivitetty: 21.09.2020 15:50
Selkeää  
Selkeää  
   Tuuli: Etelälounas 4.6 m/s
Tuuli: Etelälounas 4.6 m/s
Lämpötila: 14°C
Kastepiste: 9°C
Kosteus: 72%
Ilmanpaine: 1000 hPa
Näkyvyys: Enemmän kuin 10 km
Pilvitiedot: Selkeää
EFSI 211250Z AUTO 20009KT 140V250 CAVOK 14/09 Q1000
EFMI - Mikkeli, Finland
Etäisyys asemalta: Itäkaakko 147 km
Päivitetty: 21.09.2020 15:50
Selkeää  
Selkeää  
   Tuuli: Lounas 3.6 m/s
Tuuli: Lounas 3.6 m/s
Lämpötila: 12°C
Kastepiste: 6°C
Kosteus: 67%
Ilmanpaine: 1006 hPa
Näkyvyys: Enemmän kuin 10 km
Pilvitiedot: Selkeää
EFMI 211250Z AUTO 22007KT 170V270 CAVOK 12/06 Q1006
EFPO - Pori (Mil/Civ), Finland
Etäisyys asemalta: Länsilounas 154 km
Päivitetty: 21.09.2020 15:50
Selkeää  
Selkeää  
   Tuuli: Etelälounas 6.7 m/s
Tuuli: Etelälounas 6.7 m/s
Lämpötila: 15°C
Kastepiste: 10°C
Kosteus: 72%
Ilmanpaine: 1005 hPa
Näkyvyys: Enemmän kuin 10 km
Pilvitiedot: Selkeää
EFPO 211250Z AUTO 20013KT 170V230 CAVOK 15/10 Q1005
EFUT - Utti (Fin-Afb), Finland
Etäisyys asemalta: Kaakko 180 km
Päivitetty: 21.09.2020 15:50
Selkeää  
Selkeää  
   Tuuli: Lounas 4.6 m/s
Tuuli: Lounas 4.6 m/s
Lämpötila: 13°C
Kastepiste: 6°C
Kosteus: 63%
Ilmanpaine: 1008 hPa
Näkyvyys: Enemmän kuin 10 km
Pilvitiedot: Selkeää
EFUT 211250Z 22009KT CAVOK 13/06 Q1008
EFVA - Vaasa, Finland
Etäisyys asemalta: Luode 180 km
Päivitetty: 21.09.2020 15:50
Vähäistä pilvisyyttä  
Vähäistä pilvisyyttä  
   Tuuli: Etelälounas 7.2 m/s
Tuuli: Etelälounas 7.2 m/s
Lämpötila: 13°C
Kastepiste: 9°C
Kosteus: 77%
Ilmanpaine: 999 hPa
Pilvisyys: Vähäistä pilvisyyttä
Näkyvyys: Enemmän kuin 10 km
Pilvitiedot: Vähäistä pilvisyyttä 671 m
EFVA 211250Z AUTO 21014KT 9999 FEW022 13/09 Q0999
EFHK - Helsinki/Vantaa, Finland
Etäisyys asemalta: Etelä 191 km
Päivitetty: 21.09.2020 15:50
Vähäistä pilvisyyttä  
Vähäistä pilvisyyttä  
   Tuuli: Etelälounas 7.7 m/s
Tuuli: Etelälounas 7.7 m/s
Lämpötila: 14°C
Kastepiste: 11°C
Kosteus: 82%
Ilmanpaine: 1009 hPa
Pilvisyys: Vähäistä pilvisyyttä
Näkyvyys: Enemmän kuin 10 km
Pilvitiedot: Vähäistä pilvisyyttä 396 m
EFHK 211250Z 21015KT 9999 FEW013 14/11 Q1009 NOSIG

Alkuperäinen skripti  Saratoga-weather.org Sovitettu myös templatelle  Weerstation Leuven

Laitteet joita käytämme:

Sääasema
Davis VP2

Sääasemaohjelma
Cumulus

Sääaseman palvelin
HP ProBook 6460b

Palveluntarjoaja
Radicenter

Davis VP2

Cumulus

HP ProBook 6460b

Radicenter




Flag Counter Cumulus Top Weather Sites